CFP3 weather

CLOSED Calgary (Foothills Hospital) Heliport
Calgary, Alberta, Canada

Public forecast

Using degrees Celsius for public forecast. Weather courtesy of forecast.io.

METAR (pilot weather report)

Closest report is Calgary International Airport, 5.2 nm (9.6 km) NE. Retrieved 2019/06/25 13:00 UTC (37 minutes ago):

CYYC 251300Z 34006KT 40SM FEW095 SCT120 SCT220 10/06 A2986 RMK AC1AC3CI1 CI TR SLP124 DENSITY ALT 4000FT

TAF (pilot weather forecast)

Closest forecast is Calgary International Airport, 5.2 nm (9.6 km) NE. Retrieved 2019/06/25 12:42 UTC (55 minutes ago):

TAF CYYC 251138Z 2512/2612 33006KT P6SM SCT040 SCT120 FM251700 34008KT P6SM VCSH BKN030 FM252100 36008KT P6SM BKN040 TEMPO 2521/2604 P6SM -SHRA VCTS BKN040CB FM260400 30008KT P6SM SCT020 BKN060 TEMPO 2604/2609 4SM -SHRA BR BKN020 FM260900 26005KT 6SM BR BKN060 TEMPO 2610/2612 2SM BR SCT006 SCT060 RMK NXT FCST BY 251500Z